Terminal Aerodrome Forecast
Issued by NWS

Current Version | Previous Version | Text Only | Print | Product List | Glossary On
Versions: 1 2 3 4 5 6 7 8 9 10 11 12 13 14
000
FTUS41 KPHI 301700 RRA
TAFPNE
TAF
KPNE 301741Z 3018/0118 VRB04KT P6SM SCT040 SCT200
     FM010000 09006KT P6SM BKN040
     FM010500 03008KT P6SM BKN015
     FM010800 03008KT 6SM BR BKN007 OVC012
     FM011300 04010KT P6SM BKN010
     FM011700 02008KT P6SM SCT015 BKN040=

USA.gov is the U.S. government's official web portal to all federal, state and local government web resources and services.